sensor_id;sensor_type;location;lat;lon;timestamp;P1;P2;P0
55518;PMS5003;41724;51.176;-0.708;2023-03-01T00:01:38;17;16;
55518;PMS5003;41724;51.176;-0.708;2023-03-01T00:04:05;22;21;
55518;PMS5003;41724;51.176;-0.708;2023-03-01T00:06:33;24;23;
55518;PMS5003;41724;51.176;-0.708;2023-03-01T00:09:00;18;18;
55518;PMS5003;41724;51.176;-0.708;2023-03-01T00:11:27;18;17;
55518;PMS5003;41724;51.176;-0.708;2023-03-01T00:13:56;22;22;
55518;PMS5003;41724;51.176;-0.708;2023-03-01T00:16:26;19;19;
55518;PMS5003;41724;51.176;-0.708;2023-03-01T00:18:55;21;20;
55518;PMS5003;41724;51.176;-0.708;2023-03-01T00:21:23;22;22;
55518;PMS5003;41724;51.176;-0.708;2023-03-01T00:23:51;20;19;
55518;PMS5003;41724;51.176;-0.708;2023-03-01T00:26:20;22;22;
55518;PMS5003;41724;51.176;-0.708;2023-03-01T00:28:50;17;16;
55518;PMS5003;41724;51.176;-0.708;2023-03-01T00:31:19;22;20;
55518;PMS5003;41724;51.176;-0.708;2023-03-01T00:33:48;22;20;
55518;PMS5003;41724;51.176;-0.708;2023-03-01T00:36:19;24;24;
55518;PMS5003;41724;51.176;-0.708;2023-03-01T00:38:46;20;20;
55518;PMS5003;41724;51.176;-0.708;2023-03-01T00:41:15;23;23;
55518;PMS5003;41724;51.176;-0.708;2023-03-01T00:43:44;20;20;
55518;PMS5003;41724;51.176;-0.708;2023-03-01T00:46:13;20;20;
55518;PMS5003;41724;51.176;-0.708;2023-03-01T00:48:42;22;21;
55518;PMS5003;41724;51.176;-0.708;2023-03-01T00:51:10;19;19;
55518;PMS5003;41724;51.176;-0.708;2023-03-01T00:53:38;23;23;
55518;PMS5003;41724;51.176;-0.708;2023-03-01T00:56:07;21;20;
55518;PMS5003;41724;51.176;-0.708;2023-03-01T00:58:35;23;23;
55518;PMS5003;41724;51.176;-0.708;2023-03-01T01:01:07;23;23;
55518;PMS5003;41724;51.176;-0.708;2023-03-01T01:03:34;26;26;
55518;PMS5003;41724;51.176;-0.708;2023-03-01T01:13:54;23;21;
55518;PMS5003;41724;51.176;-0.708;2023-03-01T01:16:22;24;23;
55518;PMS5003;41724;51.176;-0.708;2023-03-01T01:28:56;32;32;
55518;PMS5003;41724;51.176;-0.708;2023-03-01T01:31:23;24;24;
55518;PMS5003;41724;51.176;-0.708;2023-03-01T01:33:52;28;26;
55518;PMS5003;41724;51.176;-0.708;2023-03-01T01:36:20;23;20;
55518;PMS5003;41724;51.176;-0.708;2023-03-01T01:38:48;29;28;
55518;PMS5003;41724;51.176;-0.708;2023-03-01T01:41:15;25;25;
55518;PMS5003;41724;51.176;-0.708;2023-03-01T01:43:44;24;21;
55518;PMS5003;41724;51.176;-0.708;2023-03-01T01:46:15;26;26;
55518;PMS5003;41724;51.176;-0.708;2023-03-01T01:48:54;23;23;
55518;PMS5003;41724;51.176;-0.708;2023-03-01T01:51:24;27;27;
55518;PMS5003;41724;51.176;-0.708;2023-03-01T01:53:55;34;34;
55518;PMS5003;41724;51.176;-0.708;2023-03-01T01:56:27;31;29;
55518;PMS5003;41724;51.176;-0.708;2023-03-01T01:58:56;31;29;
55518;PMS5003;41724;51.176;-0.708;2023-03-01T02:01:24;34;33;
55518;PMS5003;41724;51.176;-0.708;2023-03-01T02:03:51;35;34;
55518;PMS5003;41724;51.176;-0.708;2023-03-01T02:06:20;29;26;
55518;PMS5003;41724;51.176;-0.708;2023-03-01T02:08:52;31;28;
55518;PMS5003;41724;51.176;-0.708;2023-03-01T02:11:19;30;30;
55518;PMS5003;41724;51.176;-0.708;2023-03-01T02:13:47;31;30;
55518;PMS5003;41724;51.176;-0.708;2023-03-01T02:16:16;31;30;
55518;PMS5003;41724;51.176;-0.708;2023-03-01T02:18:43;32;31;
55518;PMS5003;41724;51.176;-0.708;2023-03-01T02:21:16;33;32;
55518;PMS5003;41724;51.176;-0.708;2023-03-01T02:23:52;31;29;
55518;PMS5003;41724;51.176;-0.708;2023-03-01T02:26:20;34;31;
55518;PMS5003;41724;51.176;-0.708;2023-03-01T02:28:55;35;34;
55518;PMS5003;41724;51.176;-0.708;2023-03-01T02:31:23;28;27;
55518;PMS5003;41724;51.176;-0.708;2023-03-01T02:33:51;31;31;
55518;PMS5003;41724;51.176;-0.708;2023-03-01T02:36:20;24;24;
55518;PMS5003;41724;51.176;-0.708;2023-03-01T02:38:51;29;29;
55518;PMS5003;41724;51.176;-0.708;2023-03-01T02:41:20;27;27;
55518;PMS5003;41724;51.176;-0.708;2023-03-01T02:43:50;32;30;
55518;PMS5003;41724;51.176;-0.708;2023-03-01T02:46:18;36;34;
55518;PMS5003;41724;51.176;-0.708;2023-03-01T02:48:47;35;33;
55518;PMS5003;41724;51.176;-0.708;2023-03-01T02:51:21;39;38;
55518;PMS5003;41724;51.176;-0.708;2023-03-01T02:54:03;33;33;
55518;PMS5003;41724;51.176;-0.708;2023-03-01T02:56:37;37;33;
55518;PMS5003;41724;51.176;-0.708;2023-03-01T02:59:04;35;35;
55518;PMS5003;41724;51.176;-0.708;2023-03-01T03:01:31;36;35;
55518;PMS5003;41724;51.176;-0.708;2023-03-01T03:03:59;41;36;
55518;PMS5003;41724;51.176;-0.708;2023-03-01T03:06:27;35;34;
55518;PMS5003;41724;51.176;-0.708;2023-03-01T03:08:54;42;38;
55518;PMS5003;41724;51.176;-0.708;2023-03-01T03:11:21;36;33;
55518;PMS5003;41724;51.176;-0.708;2023-03-01T03:13:49;35;35;
55518;PMS5003;41724;51.176;-0.708;2023-03-01T03:16:16;31;29;
55518;PMS5003;41724;51.176;-0.708;2023-03-01T03:18:44;36;36;
55518;PMS5003;41724;51.176;-0.708;2023-03-01T03:21:11;36;34;
55518;PMS5003;41724;51.176;-0.708;2023-03-01T03:23:39;38;37;
55518;PMS5003;41724;51.176;-0.708;2023-03-01T03:26:08;32;32;
55518;PMS5003;41724;51.176;-0.708;2023-03-01T03:28:36;43;42;
55518;PMS5003;41724;51.176;-0.708;2023-03-01T03:31:03;32;31;
55518;PMS5003;41724;51.176;-0.708;2023-03-01T03:33:33;31;31;
55518;PMS5003;41724;51.176;-0.708;2023-03-01T03:36:02;31;31;
55518;PMS5003;41724;51.176;-0.708;2023-03-01T03:38:30;33;32;
55518;PMS5003;41724;51.176;-0.708;2023-03-01T03:40:59;35;33;
55518;PMS5003;41724;51.176;-0.708;2023-03-01T03:43:28;39;35;
55518;PMS5003;41724;51.176;-0.708;2023-03-01T03:45:57;32;32;
55518;PMS5003;41724;51.176;-0.708;2023-03-01T03:48:24;32;29;
55518;PMS5003;41724;51.176;-0.708;2023-03-01T03:50:53;35;35;
55518;PMS5003;41724;51.176;-0.708;2023-03-01T03:53:22;38;36;
55518;PMS5003;41724;51.176;-0.708;2023-03-01T03:55:50;35;33;
55518;PMS5003;41724;51.176;-0.708;2023-03-01T03:58:18;28;28;
55518;PMS5003;41724;51.176;-0.708;2023-03-01T04:00:48;27;27;
55518;PMS5003;41724;51.176;-0.708;2023-03-01T04:03:18;32;31;
55518;PMS5003;41724;51.176;-0.708;2023-03-01T04:05:46;30;30;
55518;PMS5003;41724;51.176;-0.708;2023-03-01T04:08:14;32;31;
55518;PMS5003;41724;51.176;-0.708;2023-03-01T04:10:43;26;26;
55518;PMS5003;41724;51.176;-0.708;2023-03-01T04:13:12;35;32;
55518;PMS5003;41724;51.176;-0.708;2023-03-01T04:15:41;30;30;
55518;PMS5003;41724;51.176;-0.708;2023-03-01T04:18:09;33;30;
55518;PMS5003;41724;51.176;-0.708;2023-03-01T04:20:39;27;26;
55518;PMS5003;41724;51.176;-0.708;2023-03-01T04:23:07;31;30;
55518;PMS5003;41724;51.176;-0.708;2023-03-01T04:25:37;28;27;
55518;PMS5003;41724;51.176;-0.708;2023-03-01T04:28:06;34;33;
55518;PMS5003;41724;51.176;-0.708;2023-03-01T04:30:33;30;29;
55518;PMS5003;41724;51.176;-0.708;2023-03-01T04:33:02;28;27;
55518;PMS5003;41724;51.176;-0.708;2023-03-01T04:35:30;32;30;
55518;PMS5003;41724;51.176;-0.708;2023-03-01T04:37:58;28;28;
55518;PMS5003;41724;51.176;-0.708;2023-03-01T04:40:25;36;34;
55518;PMS5003;41724;51.176;-0.708;2023-03-01T04:42:53;39;35;
55518;PMS5003;41724;51.176;-0.708;2023-03-01T04:45:20;34;32;
55518;PMS5003;41724;51.176;-0.708;2023-03-01T04:47:47;35;34;
55518;PMS5003;41724;51.176;-0.708;2023-03-01T04:50:15;32;29;
55518;PMS5003;41724;51.176;-0.708;2023-03-01T04:52:43;37;36;
55518;PMS5003;41724;51.176;-0.708;2023-03-01T04:55:11;28;28;
55518;PMS5003;41724;51.176;-0.708;2023-03-01T04:57:38;32;31;
55518;PMS5003;41724;51.176;-0.708;2023-03-01T05:00:07;44;40;
55518;PMS5003;41724;51.176;-0.708;2023-03-01T05:02:38;44;42;
55518;PMS5003;41724;51.176;-0.708;2023-03-01T05:05:05;39;37;
55518;PMS5003;41724;51.176;-0.708;2023-03-01T05:07:33;28;27;
55518;PMS5003;41724;51.176;-0.708;2023-03-01T05:10:00;28;28;
55518;PMS5003;41724;51.176;-0.708;2023-03-01T05:12:26;25;25;
55518;PMS5003;41724;51.176;-0.708;2023-03-01T05:14:53;22;22;
55518;PMS5003;41724;51.176;-0.708;2023-03-01T05:17:20;15;14;
55518;PMS5003;41724;51.176;-0.708;2023-03-01T05:19:47;7;7;
55518;PMS5003;41724;51.176;-0.708;2023-03-01T05:22:14;5;5;
55518;PMS5003;41724;51.176;-0.708;2023-03-01T05:24:41;6;5;
55518;PMS5003;41724;51.176;-0.708;2023-03-01T05:27:09;4;4;
55518;PMS5003;41724;51.176;-0.708;2023-03-01T05:29:36;6;6;
55518;PMS5003;41724;51.176;-0.708;2023-03-01T05:32:04;4;4;
55518;PMS5003;41724;51.176;-0.708;2023-03-01T05:34:32;5;4;
55518;PMS5003;41724;51.176;-0.708;2023-03-01T05:37:00;5;5;
55518;PMS5003;41724;51.176;-0.708;2023-03-01T05:39:28;5;5;
55518;PMS5003;41724;51.176;-0.708;2023-03-01T05:41:57;5;5;
55518;PMS5003;41724;51.176;-0.708;2023-03-01T05:44:26;4;4;
55518;PMS5003;41724;51.176;-0.708;2023-03-01T05:46:54;4;4;
55518;PMS5003;41724;51.176;-0.708;2023-03-01T05:49:22;6;4;
55518;PMS5003;41724;51.176;-0.708;2023-03-01T05:51:50;5;5;
55518;PMS5003;41724;51.176;-0.708;2023-03-01T05:54:19;5;5;
55518;PMS5003;41724;51.176;-0.708;2023-03-01T05:56:47;4;4;
55518;PMS5003;41724;51.176;-0.708;2023-03-01T05:59:14;3;3;
55518;PMS5003;41724;51.176;-0.708;2023-03-01T06:01:41;3;3;
55518;PMS5003;41724;51.176;-0.708;2023-03-01T06:04:08;4;3;
55518;PMS5003;41724;51.176;-0.708;2023-03-01T06:06:36;6;5;
55518;PMS5003;41724;51.176;-0.708;2023-03-01T06:09:05;4;4;
55518;PMS5003;41724;51.176;-0.708;2023-03-01T06:11:33;3;3;
55518;PMS5003;41724;51.176;-0.708;2023-03-01T06:14:00;3;3;
55518;PMS5003;41724;51.176;-0.708;2023-03-01T06:16:27;3;3;
55518;PMS5003;41724;51.176;-0.708;2023-03-01T06:18:54;4;4;
55518;PMS5003;41724;51.176;-0.708;2023-03-01T06:21:21;4;4;
55518;PMS5003;41724;51.176;-0.708;2023-03-01T06:23:48;5;5;
55518;PMS5003;41724;51.176;-0.708;2023-03-01T06:26:16;4;4;
55518;PMS5003;41724;51.176;-0.708;2023-03-01T06:28:43;3;3;
55518;PMS5003;41724;51.176;-0.708;2023-03-01T06:31:10;4;4;
55518;PMS5003;41724;51.176;-0.708;2023-03-01T06:33:37;5;4;
55518;PMS5003;41724;51.176;-0.708;2023-03-01T06:36:05;4;4;
55518;PMS5003;41724;51.176;-0.708;2023-03-01T06:38:33;5;5;
55518;PMS5003;41724;51.176;-0.708;2023-03-01T06:41:00;6;6;
55518;PMS5003;41724;51.176;-0.708;2023-03-01T06:43:27;4;4;
55518;PMS5003;41724;51.176;-0.708;2023-03-01T06:45:55;4;4;
55518;PMS5003;41724;51.176;-0.708;2023-03-01T06:48:22;5;5;
55518;PMS5003;41724;51.176;-0.708;2023-03-01T06:50:50;3;3;
55518;PMS5003;41724;51.176;-0.708;2023-03-01T06:53:16;5;5;
55518;PMS5003;41724;51.176;-0.708;2023-03-01T06:55:44;4;4;
55518;PMS5003;41724;51.176;-0.708;2023-03-01T06:58:11;6;6;
55518;PMS5003;41724;51.176;-0.708;2023-03-01T07:00:38;5;5;
55518;PMS5003;41724;51.176;-0.708;2023-03-01T07:03:05;4;4;
55518;PMS5003;41724;51.176;-0.708;2023-03-01T07:05:33;4;4;
55518;PMS5003;41724;51.176;-0.708;2023-03-01T07:08:00;6;6;
55518;PMS5003;41724;51.176;-0.708;2023-03-01T07:10:27;5;5;
55518;PMS5003;41724;51.176;-0.708;2023-03-01T07:12:55;5;5;
55518;PMS5003;41724;51.176;-0.708;2023-03-01T07:15:23;5;5;
55518;PMS5003;41724;51.176;-0.708;2023-03-01T07:17:51;6;5;
55518;PMS5003;41724;51.176;-0.708;2023-03-01T07:20:18;5;5;
55518;PMS5003;41724;51.176;-0.708;2023-03-01T07:22:46;6;5;
55518;PMS5003;41724;51.176;-0.708;2023-03-01T07:25:13;5;5;
55518;PMS5003;41724;51.176;-0.708;2023-03-01T07:27:40;7;6;
55518;PMS5003;41724;51.176;-0.708;2023-03-01T07:30:08;6;6;
55518;PMS5003;41724;51.176;-0.708;2023-03-01T07:32:35;5;5;
55518;PMS5003;41724;51.176;-0.708;2023-03-01T07:35:03;4;3;
55518;PMS5003;41724;51.176;-0.708;2023-03-01T07:37:30;5;5;
55518;PMS5003;41724;51.176;-0.708;2023-03-01T07:39:57;5;4;
55518;PMS5003;41724;51.176;-0.708;2023-03-01T07:42:24;6;6;
55518;PMS5003;41724;51.176;-0.708;2023-03-01T07:44:51;6;6;
55518;PMS5003;41724;51.176;-0.708;2023-03-01T07:47:19;6;6;
55518;PMS5003;41724;51.176;-0.708;2023-03-01T07:49:46;6;6;
55518;PMS5003;41724;51.176;-0.708;2023-03-01T07:52:13;5;5;
55518;PMS5003;41724;51.176;-0.708;2023-03-01T07:54:42;5;5;
55518;PMS5003;41724;51.176;-0.708;2023-03-01T07:57:09;8;7;
55518;PMS5003;41724;51.176;-0.708;2023-03-01T07:59:36;6;5;
55518;PMS5003;41724;51.176;-0.708;2023-03-01T08:02:03;10;9;
55518;PMS5003;41724;51.176;-0.708;2023-03-01T08:04:31;6;6;
55518;PMS5003;41724;51.176;-0.708;2023-03-01T08:06:59;5;5;
55518;PMS5003;41724;51.176;-0.708;2023-03-01T08:09:26;5;5;
55518;PMS5003;41724;51.176;-0.708;2023-03-01T08:11:53;7;6;
55518;PMS5003;41724;51.176;-0.708;2023-03-01T08:14:20;6;6;
55518;PMS5003;41724;51.176;-0.708;2023-03-01T08:16:48;5;5;
55518;PMS5003;41724;51.176;-0.708;2023-03-01T08:19:15;6;6;
55518;PMS5003;41724;51.176;-0.708;2023-03-01T08:21:43;5;5;
55518;PMS5003;41724;51.176;-0.708;2023-03-01T08:24:10;4;4;
55518;PMS5003;41724;51.176;-0.708;2023-03-01T08:26:37;7;6;
55518;PMS5003;41724;51.176;-0.708;2023-03-01T08:29:04;5;4;
55518;PMS5003;41724;51.176;-0.708;2023-03-01T08:31:32;5;5;
55518;PMS5003;41724;51.176;-0.708;2023-03-01T08:34:02;5;4;
55518;PMS5003;41724;51.176;-0.708;2023-03-01T08:36:32;5;4;
55518;PMS5003;41724;51.176;-0.708;2023-03-01T08:39:02;4;4;
55518;PMS5003;41724;51.176;-0.708;2023-03-01T08:41:30;6;6;
55518;PMS5003;41724;51.176;-0.708;2023-03-01T08:43:57;6;5;
55518;PMS5003;41724;51.176;-0.708;2023-03-01T08:46:25;4;3;
55518;PMS5003;41724;51.176;-0.708;2023-03-01T08:48:52;4;3;
55518;PMS5003;41724;51.176;-0.708;2023-03-01T08:51:20;6;4;
55518;PMS5003;41724;51.176;-0.708;2023-03-01T08:53:48;5;5;
55518;PMS5003;41724;51.176;-0.708;2023-03-01T08:56:15;5;5;
55518;PMS5003;41724;51.176;-0.708;2023-03-01T08:58:43;4;4;
55518;PMS5003;41724;51.176;-0.708;2023-03-01T09:01:12;5;5;
55518;PMS5003;41724;51.176;-0.708;2023-03-01T09:03:41;4;4;
55518;PMS5003;41724;51.176;-0.708;2023-03-01T09:06:09;5;5;
55518;PMS5003;41724;51.176;-0.708;2023-03-01T09:08:36;4;4;
55518;PMS5003;41724;51.176;-0.708;2023-03-01T09:11:05;4;4;
55518;PMS5003;41724;51.176;-0.708;2023-03-01T09:13:35;5;4;
55518;PMS5003;41724;51.176;-0.708;2023-03-01T09:16:04;6;6;
55518;PMS5003;41724;51.176;-0.708;2023-03-01T09:18:33;3;3;
55518;PMS5003;41724;51.176;-0.708;2023-03-01T09:21:02;6;6;
55518;PMS5003;41724;51.176;-0.708;2023-03-01T09:23:30;4;3;
55518;PMS5003;41724;51.176;-0.708;2023-03-01T09:25:58;5;4;
55518;PMS5003;41724;51.176;-0.708;2023-03-01T09:28:25;5;5;
55518;PMS5003;41724;51.176;-0.708;2023-03-01T09:30:52;5;5;
55518;PMS5003;41724;51.176;-0.708;2023-03-01T09:33:19;5;5;
55518;PMS5003;41724;51.176;-0.708;2023-03-01T09:35:46;4;4;
55518;PMS5003;41724;51.176;-0.708;2023-03-01T09:38:14;5;5;
55518;PMS5003;41724;51.176;-0.708;2023-03-01T09:40:43;3;3;
55518;PMS5003;41724;51.176;-0.708;2023-03-01T09:43:13;5;4;
55518;PMS5003;41724;51.176;-0.708;2023-03-01T09:45:46;3;3;
55518;PMS5003;41724;51.176;-0.708;2023-03-01T09:48:18;3;3;
55518;PMS5003;41724;51.176;-0.708;2023-03-01T09:50:48;4;4;
55518;PMS5003;41724;51.176;-0.708;2023-03-01T09:53:15;5;5;
55518;PMS5003;41724;51.176;-0.708;2023-03-01T09:55:45;6;4;
55518;PMS5003;41724;51.176;-0.708;2023-03-01T09:58:39;4;4;
55518;PMS5003;41724;51.176;-0.708;2023-03-01T10:01:19;4;4;
55518;PMS5003;41724;51.176;-0.708;2023-03-01T10:03:58;4;4;
55518;PMS5003;41724;51.176;-0.708;2023-03-01T10:06:37;7;7;
55518;PMS5003;41724;51.176;-0.708;2023-03-01T10:09:07;24;22;
55518;PMS5003;41724;51.176;-0.708;2023-03-01T10:11:41;4;4;
55518;PMS5003;41724;51.176;-0.708;2023-03-01T10:14:15;2;2;
55518;PMS5003;41724;51.176;-0.708;2023-03-01T10:16:52;3;3;
55518;PMS5003;41724;51.176;-0.708;2023-03-01T10:19:24;1;1;
55518;PMS5003;41724;51.176;-0.708;2023-03-01T10:21:58;2;2;
55518;PMS5003;41724;51.176;-0.708;2023-03-01T10:24:31;4;4;
55518;PMS5003;41724;51.176;-0.708;2023-03-01T10:27:03;2;2;
55518;PMS5003;41724;51.176;-0.708;2023-03-01T10:29:38;1;1;
55518;PMS5003;41724;51.176;-0.708;2023-03-01T10:32:11;2;2;
55518;PMS5003;41724;51.176;-0.708;2023-03-01T10:34:38;2;2;
55518;PMS5003;41724;51.176;-0.708;2023-03-01T10:37:09;1;1;
55518;PMS5003;41724;51.176;-0.708;2023-03-01T10:39:37;2;2;
55518;PMS5003;41724;51.176;-0.708;2023-03-01T10:42:23;1;1;
55518;PMS5003;41724;51.176;-0.708;2023-03-01T10:44:54;2;2;
55518;PMS5003;41724;51.176;-0.708;2023-03-01T10:47:22;1;1;
55518;PMS5003;41724;51.176;-0.708;2023-03-01T10:49:52;2;2;
55518;PMS5003;41724;51.176;-0.708;2023-03-01T10:52:23;1;1;
55518;PMS5003;41724;51.176;-0.708;2023-03-01T10:54:53;2;2;
55518;PMS5003;41724;51.176;-0.708;2023-03-01T10:57:31;1;1;
55518;PMS5003;41724;51.176;-0.708;2023-03-01T11:00:13;2;2;
55518;PMS5003;41724;51.176;-0.708;2023-03-01T11:02:48;2;2;
55518;PMS5003;41724;51.176;-0.708;2023-03-01T11:05:19;1;1;
55518;PMS5003;41724;51.176;-0.708;2023-03-01T11:07:49;1;1;
55518;PMS5003;41724;51.176;-0.708;2023-03-01T11:10:18;2;2;
55518;PMS5003;41724;51.176;-0.708;2023-03-01T11:12:47;2;2;
55518;PMS5003;41724;51.176;-0.708;2023-03-01T11:15:21;2;2;
55518;PMS5003;41724;51.176;-0.708;2023-03-01T11:17:51;2;2;
55518;PMS5003;41724;51.176;-0.708;2023-03-01T11:20:23;3;3;
55518;PMS5003;41724;51.176;-0.708;2023-03-01T11:22:54;2;2;
55518;PMS5003;41724;51.176;-0.708;2023-03-01T11:25:25;1;1;
55518;PMS5003;41724;51.176;-0.708;2023-03-01T11:27:54;2;2;
55518;PMS5003;41724;51.176;-0.708;2023-03-01T11:30:23;1;1;
55518;PMS5003;41724;51.176;-0.708;2023-03-01T11:32:58;2;2;
55518;PMS5003;41724;51.176;-0.708;2023-03-01T11:35:32;3;3;
55518;PMS5003;41724;51.176;-0.708;2023-03-01T11:38:05;4;3;
55518;PMS5003;41724;51.176;-0.708;2023-03-01T11:40:43;4;3;
55518;PMS5003;41724;51.176;-0.708;2023-03-01T11:43:16;3;3;
55518;PMS5003;41724;51.176;-0.708;2023-03-01T11:45:53;3;3;
55518;PMS5003;41724;51.176;-0.708;2023-03-01T11:48:39;1;1;
55518;PMS5003;41724;51.176;-0.708;2023-03-01T11:51:17;3;2;
55518;PMS5003;41724;51.176;-0.708;2023-03-01T11:53:56;2;2;
55518;PMS5003;41724;51.176;-0.708;2023-03-01T11:56:34;2;2;
55518;PMS5003;41724;51.176;-0.708;2023-03-01T11:59:17;1;1;
55518;PMS5003;41724;51.176;-0.708;2023-03-01T12:02:22;2;2;
55518;PMS5003;41724;51.176;-0.708;2023-03-01T12:05:14;3;3;
55518;PMS5003;41724;51.176;-0.708;2023-03-01T12:07:53;2;2;
55518;PMS5003;41724;51.176;-0.708;2023-03-01T12:10:29;3;3;
55518;PMS5003;41724;51.176;-0.708;2023-03-01T12:13:06;4;4;
55518;PMS5003;41724;51.176;-0.708;2023-03-01T12:15:48;3;3;
55518;PMS5003;41724;51.176;-0.708;2023-03-01T12:18:34;1;1;
55518;PMS5003;41724;51.176;-0.708;2023-03-01T12:21:19;2;2;
55518;PMS5003;41724;51.176;-0.708;2023-03-01T12:24:02;3;3;
55518;PMS5003;41724;51.176;-0.708;2023-03-01T12:26:43;3;2;
55518;PMS5003;41724;51.176;-0.708;2023-03-01T12:29:23;2;2;
55518;PMS5003;41724;51.176;-0.708;2023-03-01T12:31:56;3;3;
55518;PMS5003;41724;51.176;-0.708;2023-03-01T12:34:38;3;3;
55518;PMS5003;41724;51.176;-0.708;2023-03-01T12:37:21;3;3;
55518;PMS5003;41724;51.176;-0.708;2023-03-01T12:40:02;2;2;
55518;PMS5003;41724;51.176;-0.708;2023-03-01T12:42:43;3;3;
55518;PMS5003;41724;51.176;-0.708;2023-03-01T12:45:25;2;2;
55518;PMS5003;41724;51.176;-0.708;2023-03-01T12:48:11;3;3;
55518;PMS5003;41724;51.176;-0.708;2023-03-01T12:50:51;2;2;
55518;PMS5003;41724;51.176;-0.708;2023-03-01T12:53:22;3;3;
55518;PMS5003;41724;51.176;-0.708;2023-03-01T12:55:52;4;4;
55518;PMS5003;41724;51.176;-0.708;2023-03-01T12:58:24;2;2;
55518;PMS5003;41724;51.176;-0.708;2023-03-01T13:01:02;2;2;
55518;PMS5003;41724;51.176;-0.708;2023-03-01T13:03:53;3;3;
55518;PMS5003;41724;51.176;-0.708;2023-03-01T13:06:34;2;2;
55518;PMS5003;41724;51.176;-0.708;2023-03-01T13:09:09;3;3;
55518;PMS5003;41724;51.176;-0.708;2023-03-01T13:11:42;3;3;
55518;PMS5003;41724;51.176;-0.708;2023-03-01T13:15:25;4;3;
55518;PMS5003;41724;51.176;-0.708;2023-03-01T13:17:54;4;3;
55518;PMS5003;41724;51.176;-0.708;2023-03-01T13:20:24;2;2;
55518;PMS5003;41724;51.176;-0.708;2023-03-01T13:23:12;5;4;
55518;PMS5003;41724;51.176;-0.708;2023-03-01T13:26:09;1;1;
55518;PMS5003;41724;51.176;-0.708;2023-03-01T13:28:46;3;3;
55518;PMS5003;41724;51.176;-0.708;2023-03-01T13:31:55;4;3;
55518;PMS5003;41724;51.176;-0.708;2023-03-01T13:34:58;3;3;
55518;PMS5003;41724;51.176;-0.708;2023-03-01T13:37:27;3;3;
55518;PMS5003;41724;51.176;-0.708;2023-03-01T13:39:58;4;4;
55518;PMS5003;41724;51.176;-0.708;2023-03-01T13:42:31;5;4;
55518;PMS5003;41724;51.176;-0.708;2023-03-01T13:45:13;6;5;
55518;PMS5003;41724;51.176;-0.708;2023-03-01T13:47:46;5;5;
55518;PMS5003;41724;51.176;-0.708;2023-03-01T13:50:16;6;6;
55518;PMS5003;41724;51.176;-0.708;2023-03-01T13:52:48;5;4;
55518;PMS5003;41724;51.176;-0.708;2023-03-01T13:55:21;6;6;
55518;PMS5003;41724;51.176;-0.708;2023-03-01T13:57:53;4;4;
55518;PMS5003;41724;51.176;-0.708;2023-03-01T14:00:28;4;4;
55518;PMS5003;41724;51.176;-0.708;2023-03-01T14:03:00;4;3;
55518;PMS5003;41724;51.176;-0.708;2023-03-01T14:05:28;3;3;
55518;PMS5003;41724;51.176;-0.708;2023-03-01T14:07:55;3;3;
55518;PMS5003;41724;51.176;-0.708;2023-03-01T14:10:22;5;4;
55518;PMS5003;41724;51.176;-0.708;2023-03-01T14:13:01;3;3;
55518;PMS5003;41724;51.176;-0.708;2023-03-01T14:15:37;2;2;
55518;PMS5003;41724;51.176;-0.708;2023-03-01T14:18:09;5;5;
55518;PMS5003;41724;51.176;-0.708;2023-03-01T14:20:40;3;3;
55518;PMS5003;41724;51.176;-0.708;2023-03-01T14:23:10;3;3;
55518;PMS5003;41724;51.176;-0.708;2023-03-01T14:25:45;4;4;
55518;PMS5003;41724;51.176;-0.708;2023-03-01T14:28:16;4;4;
55518;PMS5003;41724;51.176;-0.708;2023-03-01T14:30:45;5;5;
55518;PMS5003;41724;51.176;-0.708;2023-03-01T14:33:22;7;5;
55518;PMS5003;41724;51.176;-0.708;2023-03-01T14:35:52;5;5;
55518;PMS5003;41724;51.176;-0.708;2023-03-01T14:38:23;4;4;
55518;PMS5003;41724;51.176;-0.708;2023-03-01T14:40:56;5;5;
55518;PMS5003;41724;51.176;-0.708;2023-03-01T14:43:25;5;4;
55518;PMS5003;41724;51.176;-0.708;2023-03-01T14:45:52;5;5;
55518;PMS5003;41724;51.176;-0.708;2023-03-01T14:48:21;6;6;
55518;PMS5003;41724;51.176;-0.708;2023-03-01T14:50:48;6;5;
55518;PMS5003;41724;51.176;-0.708;2023-03-01T14:53:17;4;4;
55518;PMS5003;41724;51.176;-0.708;2023-03-01T14:55:47;5;4;
55518;PMS5003;41724;51.176;-0.708;2023-03-01T14:58:20;4;4;
55518;PMS5003;41724;51.176;-0.708;2023-03-01T15:00:50;6;5;
55518;PMS5003;41724;51.176;-0.708;2023-03-01T15:03:23;4;4;
55518;PMS5003;41724;51.176;-0.708;2023-03-01T15:05:54;7;7;
55518;PMS5003;41724;51.176;-0.708;2023-03-01T15:08:23;3;3;
55518;PMS5003;41724;51.176;-0.708;2023-03-01T15:10:57;5;5;
55518;PMS5003;41724;51.176;-0.708;2023-03-01T15:13:29;4;4;
55518;PMS5003;41724;51.176;-0.708;2023-03-01T15:16:06;8;6;
55518;PMS5003;41724;51.176;-0.708;2023-03-01T15:18:36;5;5;
55518;PMS5003;41724;51.176;-0.708;2023-03-01T15:21:06;6;6;
55518;PMS5003;41724;51.176;-0.708;2023-03-01T15:23:35;5;5;
55518;PMS5003;41724;51.176;-0.708;2023-03-01T15:26:05;5;5;
55518;PMS5003;41724;51.176;-0.708;2023-03-01T15:28:33;5;5;
55518;PMS5003;41724;51.176;-0.708;2023-03-01T15:31:17;3;3;
55518;PMS5003;41724;51.176;-0.708;2023-03-01T15:33:48;5;5;
55518;PMS5003;41724;51.176;-0.708;2023-03-01T15:36:33;5;5;
55518;PMS5003;41724;51.176;-0.708;2023-03-01T15:39:30;6;6;
55518;PMS5003;41724;51.176;-0.708;2023-03-01T15:42:00;5;5;
55518;PMS5003;41724;51.176;-0.708;2023-03-01T15:44:28;5;5;
55518;PMS5003;41724;51.176;-0.708;2023-03-01T15:46:57;5;5;
55518;PMS5003;41724;51.176;-0.708;2023-03-01T15:49:27;6;5;
55518;PMS5003;41724;51.176;-0.708;2023-03-01T15:52:08;6;6;
55518;PMS5003;41724;51.176;-0.708;2023-03-01T15:54:39;5;5;
55518;PMS5003;41724;51.176;-0.708;2023-03-01T15:57:08;7;6;
55518;PMS5003;41724;51.176;-0.708;2023-03-01T15:59:39;5;5;
55518;PMS5003;41724;51.176;-0.708;2023-03-01T16:02:10;7;7;
55518;PMS5003;41724;51.176;-0.708;2023-03-01T16:04:37;6;5;
55518;PMS5003;41724;51.176;-0.708;2023-03-01T16:07:05;5;5;
55518;PMS5003;41724;51.176;-0.708;2023-03-01T16:09:32;4;4;
55518;PMS5003;41724;51.176;-0.708;2023-03-01T16:11:59;5;4;
55518;PMS5003;41724;51.176;-0.708;2023-03-01T16:14:27;7;5;
55518;PMS5003;41724;51.176;-0.708;2023-03-01T16:16:56;6;6;
55518;PMS5003;41724;51.176;-0.708;2023-03-01T16:19:23;6;6;
55518;PMS5003;41724;51.176;-0.708;2023-03-01T16:21:50;6;6;
55518;PMS5003;41724;51.176;-0.708;2023-03-01T16:24:17;7;6;
55518;PMS5003;41724;51.176;-0.708;2023-03-01T16:26:44;5;5;
55518;PMS5003;41724;51.176;-0.708;2023-03-01T16:29:11;6;6;
55518;PMS5003;41724;51.176;-0.708;2023-03-01T16:31:43;5;4;
55518;PMS5003;41724;51.176;-0.708;2023-03-01T16:34:11;6;6;
55518;PMS5003;41724;51.176;-0.708;2023-03-01T16:36:38;7;7;
55518;PMS5003;41724;51.176;-0.708;2023-03-01T16:39:06;8;7;
55518;PMS5003;41724;51.176;-0.708;2023-03-01T16:41:35;6;6;
55518;PMS5003;41724;51.176;-0.708;2023-03-01T16:44:17;16;16;
55518;PMS5003;41724;51.176;-0.708;2023-03-01T16:46:45;11;11;
55518;PMS5003;41724;51.176;-0.708;2023-03-01T16:49:12;7;6;
55518;PMS5003;41724;51.176;-0.708;2023-03-01T16:51:40;10;9;
55518;PMS5003;41724;51.176;-0.708;2023-03-01T16:54:07;23;22;
55518;PMS5003;41724;51.176;-0.708;2023-03-01T16:56:35;96;91;
55518;PMS5003;41724;51.176;-0.708;2023-03-01T16:59:02;51;48;
55518;PMS5003;41724;51.176;-0.708;2023-03-01T17:01:29;22;21;
55518;PMS5003;41724;51.176;-0.708;2023-03-01T17:03:56;12;11;
55518;PMS5003;41724;51.176;-0.708;2023-03-01T17:06:23;11;11;